• Join FlightAware (Why Join?)
  • Login
  • US Flag 
09:08PM EST


 

Airport Tracker/Info


-or-


 

Live Flight TrackerFlight Track Log ✈ OPT404 ✈ 06-Jun-2013 ✈ KSAT - KDWH

Flight Track Log - Related Links

Times and Time Zones

All times are in EDT time to prevent confusion due to time zone crossing. See the OPT404 flight status page for this flight to view local times or setup timezone preferences in your user account.

Time Position Orientation Groundspeed Altitude Reporting Facility
EDT Latitude Longitude Course Direction KTS MPH feet Rate Location/Type
01:56PM 29.5250 -98.4661 90° East 149 171 1,800  Level Houston Center
01:57PM 29.4986 -98.4308 131° Southeast 167 192 4,700 3,360 Climbing Houston Center
01:58PM 29.5042 -98.3750 83° East 209 241 7,600 3,000 Climbing Houston Center
01:59PM 29.5247 -98.3047 71° East 233 268 10,600 2,880 Climbing Houston Center
02:00PM 29.5486 -98.2158 73° East 270 311 13,600 2,460 Climbing Houston Center
02:01PM 29.5731 -98.1242 73° East 301 346 15,700 2,220 Climbing Houston Center
02:02PM 29.6500 -97.9824 90° East  Level FlightAware Approximate
02:02PM 29.5789 -98.0131 87° East 327 376 18,200  Level Houston Center
02:03PM 29.5786 -97.9075 90° East 332 382 20,700 2,220 Climbing Houston Center
02:04PM 29.5769 -97.7950 91° East 337 388 22,900 1,980 Climbing Houston Center
02:05PM 29.5758 -97.6836 91° East 346 398 24,900 960 Climbing Houston Center
02:06PM 29.5739 -97.5653 91° East 363 418 25,000  Climbing Houston Center
02:07PM 29.5719 -97.4436 91° East 378 435 25,000 -60 Level Houston Center
02:08PM 29.5692 -97.3231 91° East 378 435 24,900 -540 Descending Houston Center
02:09PM 29.5683 -97.2025 90° East 377 434 24,000 -480 Descending Houston Center
02:10PM 29.5656 -97.0800 91° East 380 437 24,000  Level Houston Center
02:11PM 29.5622 -96.9350 91° East 376 433 24,000  Level Houston Center
02:12PM 29.5603 -96.8153 91° East 371 427 24,000  Level Houston Center
02:13PM 29.5578 -96.6942 91° East 375 432 24,000 -1,320 Level Houston Center
02:15PM 29.5547 -96.5758 92° East 372 428 21,300 -3,000 Descending Houston Center
02:16PM 29.5525 -96.4542 91° East 376 433 17,800 -3,300 Descending Houston Center
02:17PM 29.5492 -96.3336 92° East 378 435 14,600 -3,180 Descending Houston Center
02:18PM 29.5458 -96.2167 92° East 368 423 11,300 -2,820 Descending Houston Center
02:19PM 29.5797 -96.1003 71° East 319 367 8,900 -2,160 Descending Houston Center
02:20PM 29.6225 -96.0139 60° Northeast 288 331 7,000 -1,920 Descending Houston Center
02:21PM 29.6600 -95.9375 61° Northeast 262 302 5,100 -1,500 Descending Houston Center
02:22PM 29.6958 -95.8661 60° Northeast 260 299 4,000 -600 Descending Houston Center
02:23PM 29.7297 -95.7997 60° Northeast 235 270 4,000 -300 Level Houston Center
02:24PM 29.7617 -95.7333 61° Northeast 225 259 3,500 -540 Descending Houston Center
02:25PM 29.7972 -95.6619 60° Northeast 252 290 3,000 -780 Descending Houston Center
02:26PM 29.8314 -95.5978 58° Northeast 227 261 2,000 -540 Descending Houston Center
02:27PM 29.8694 -95.5522 46° Northeast 191 220 2,000  Level Houston Center
02:28PM 29.9233 -95.5458 North 186 214 2,000 -180 Level Houston Center
02:29PM 29.9692 -95.5406 North 190 219 1,700 -300 Descending Houston Center
02:29PM 29.9761 -95.5411 356° North 190 219 1,700 -900 Level Houston Center
02:30PM 30.0203 -95.5489 351° North 157 181 700 -1,200 Descending Houston Center
02:32PM 30.0500 -95.5500 337° Northwest  Level FlightAware Approximate
02:39PM 30.0618 -95.5528 337° Northwest  Level Estimated